createdAt,value
2023-11-14T00:00:13.577Z,89.00
2023-11-14T00:01:16.338Z,90.00
2023-11-14T00:02:19.153Z,90.17
2023-11-14T00:03:22.479Z,91.00
2023-11-14T00:04:25.535Z,91.17
2023-11-14T00:05:28.400Z,91.83
2023-11-14T00:06:31.175Z,92.83
2023-11-14T00:07:34.010Z,92.67
2023-11-14T00:08:36.709Z,91.00
2023-11-14T00:09:39.486Z,90.33
2023-11-14T00:10:42.376Z,90.00
2023-11-14T00:11:45.192Z,89.00
2023-11-14T00:12:47.963Z,88.50
2023-11-14T00:13:50.795Z,88.00
2023-11-14T00:14:54.265Z,88.00
2023-11-14T00:15:57.068Z,87.17
2023-11-14T00:17:00.054Z,86.83
2023-11-14T00:18:02.967Z,86.00
2023-11-14T00:19:06.148Z,86.00
2023-11-14T00:20:09.437Z,85.33
2023-11-14T00:21:13.017Z,84.17
2023-11-14T00:22:15.815Z,84.00
2023-11-14T00:23:21.539Z,84.00
2023-11-14T00:24:24.263Z,84.00
2023-11-14T00:25:31.320Z,84.00
2023-11-14T00:26:34.199Z,84.00
2023-11-14T00:27:36.965Z,84.00
2023-11-14T00:28:39.768Z,84.83
2023-11-14T00:29:42.965Z,85.00
2023-11-14T00:30:45.768Z,84.17
2023-11-14T00:31:49.045Z,84.00
2023-11-14T00:32:51.949Z,84.00
2023-11-14T00:33:54.781Z,84.00
2023-11-14T00:34:57.535Z,84.00
2023-11-14T00:36:00.988Z,84.00
2023-11-14T00:37:03.902Z,84.00
2023-11-14T00:38:06.835Z,83.33
2023-11-14T00:39:10.294Z,82.17
2023-11-14T00:40:13.435Z,80.50
2023-11-14T00:41:16.138Z,78.83
2023-11-14T00:42:18.956Z,76.67
2023-11-14T00:43:21.729Z,76.00
2023-11-14T00:44:25.433Z,75.00
2023-11-14T00:45:29.444Z,74.17
2023-11-14T00:46:32.369Z,73.83
2023-11-14T00:47:36.580Z,72.67
2023-11-14T00:48:40.299Z,71.17
2023-11-14T00:49:42.968Z,70.83
2023-11-14T00:50:45.734Z,71.00
2023-11-14T00:51:48.488Z,70.83
2023-11-14T00:52:52.085Z,69.33
2023-11-14T00:53:57.371Z,68.17
2023-11-14T00:55:00.117Z,68.00
2023-11-14T00:56:02.924Z,68.00
2023-11-14T00:57:05.873Z,67.50
2023-11-14T00:58:08.651Z,67.00
2023-11-14T00:59:11.517Z,67.00
2023-11-14T01:00:14.927Z,67.00
2023-11-14T01:01:20.837Z,67.00
2023-11-14T01:02:24.398Z,67.00
2023-11-14T01:03:28.005Z,67.00
2023-11-14T01:04:31.407Z,67.00
2023-11-14T01:05:34.105Z,67.00
2023-11-14T01:06:37.020Z,67.00
2023-11-14T01:07:40.986Z,67.50
2023-11-14T01:08:44.449Z,68.00
2023-11-14T01:09:47.183Z,68.50
2023-11-14T01:10:49.862Z,69.00
2023-11-14T01:11:52.637Z,69.00
2023-11-14T01:13:00.442Z,69.00
2023-11-14T01:14:06.649Z,69.67
2023-11-14T01:15:09.916Z,70.00
2023-11-14T01:16:14.252Z,70.00
2023-11-14T01:17:17.147Z,71.00
2023-11-14T01:18:22.818Z,71.83
2023-11-14T01:19:25.598Z,72.00
2023-11-14T01:20:28.356Z,72.50
2023-11-14T01:21:32.479Z,73.00
2023-11-14T01:22:35.325Z,73.00
2023-11-14T01:23:38.212Z,73.00
2023-11-14T01:24:41.033Z,73.00
2023-11-14T01:25:47.003Z,73.00
2023-11-14T01:26:49.834Z,73.83
2023-11-14T01:27:52.556Z,74.00
2023-11-14T01:28:55.408Z,74.33
2023-11-14T01:29:58.078Z,75.00
2023-11-14T01:31:00.850Z,75.00
2023-11-14T01:32:03.669Z,75.00
2023-11-14T01:33:06.840Z,74.17
2023-11-14T01:34:09.727Z,73.33
2023-11-14T01:35:12.552Z,73.00
2023-11-14T01:36:15.318Z,73.00
2023-11-14T01:37:18.421Z,73.00
2023-11-14T01:38:23.960Z,73.00
2023-11-14T01:39:26.681Z,72.50
2023-11-14T01:40:29.421Z,72.00
2023-11-14T01:41:32.218Z,71.00
2023-11-14T01:42:34.991Z,71.00
2023-11-14T01:43:47.527Z,70.17
2023-11-14T01:44:50.244Z,70.33
2023-11-14T01:45:53.151Z,71.00
2023-11-14T01:46:56.094Z,71.00
2023-11-14T01:47:59.542Z,71.00
2023-11-14T01:49:02.265Z,71.00
2023-11-14T01:50:06.996Z,71.00
2023-11-14T01:51:10.710Z,71.00
2023-11-14T01:52:15.771Z,71.00
2023-11-14T01:53:18.631Z,71.00
2023-11-14T01:54:21.575Z,71.00
2023-11-14T01:55:27.162Z,71.67
2023-11-14T01:56:30.391Z,73.00
2023-11-14T01:57:34.790Z,75.67
2023-11-14T01:58:40.899Z,76.00
2023-11-14T01:59:48.334Z,76.50
2023-11-14T02:00:51.917Z,77.00
2023-11-14T02:01:54.797Z,77.00
2023-11-14T02:02:58.594Z,76.00
2023-11-14T02:04:05.269Z,76.00
2023-11-14T02:05:08.486Z,75.33
2023-11-14T02:06:11.380Z,75.00
2023-11-14T02:07:14.288Z,75.00
2023-11-14T02:08:17.805Z,73.67
2023-11-14T02:09:22.201Z,73.17
2023-11-14T02:10:25.058Z,76.33
2023-11-14T02:11:27.763Z,78.00
2023-11-14T02:12:30.492Z,78.00
2023-11-14T02:13:34.883Z,78.67
2023-11-14T02:14:37.712Z,86.83
2023-11-14T02:15:40.578Z,88.33
2023-11-14T02:16:51.577Z,86.50
2023-11-14T02:17:56.256Z,85.33
2023-11-14T02:18:59.093Z,84.00
2023-11-14T02:20:01.839Z,84.00
2023-11-14T02:21:04.781Z,82.83
2023-11-14T02:22:07.541Z,80.50
2023-11-14T02:23:12.636Z,77.33
2023-11-14T02:24:19.370Z,76.17
2023-11-14T02:25:22.173Z,77.00
2023-11-14T02:26:24.968Z,77.67
2023-11-14T02:27:27.871Z,77.50
2023-11-14T02:28:30.681Z,77.00
2023-11-14T02:29:35.626Z,75.00
2023-11-14T02:30:39.143Z,74.00
2023-11-14T02:31:42.530Z,74.33
2023-11-14T02:32:45.299Z,75.00
2023-11-14T02:33:48.062Z,75.00
2023-11-14T02:34:53.960Z,75.00
2023-11-14T02:35:56.779Z,76.00
2023-11-14T02:36:59.477Z,80.83
2023-11-14T02:38:02.771Z,84.50
2023-11-14T02:39:05.957Z,83.33
2023-11-14T02:40:10.076Z,82.00
2023-11-14T02:41:16.252Z,81.50
2023-11-14T02:42:20.124Z,81.00
2023-11-14T02:43:23.030Z,80.17
2023-11-14T02:44:27.876Z,79.50
2023-11-14T02:45:30.794Z,80.50
2023-11-14T02:46:33.930Z,81.00
2023-11-14T02:47:36.953Z,80.33
2023-11-14T02:48:39.890Z,79.83
2023-11-14T02:50:18.714Z,79.00
2023-11-14T02:51:23.938Z,79.00
2023-11-14T02:52:26.783Z,79.33
2023-11-14T02:53:29.778Z,83.67
2023-11-14T02:54:32.647Z,85.67
2023-11-14T02:55:35.531Z,85.33
2023-11-14T02:56:38.338Z,84.00
2023-11-14T02:57:41.086Z,82.67
2023-11-14T02:58:43.838Z,82.00
2023-11-14T02:59:49.381Z,81.50
2023-11-14T03:00:53.028Z,81.00
2023-11-14T03:01:56.154Z,81.00
2023-11-14T03:02:58.948Z,81.67
2023-11-14T03:04:02.050Z,82.67
2023-11-14T03:05:05.073Z,83.00
2023-11-14T03:06:08.583Z,83.00
2023-11-14T03:07:11.358Z,83.00
2023-11-14T03:08:14.535Z,83.00
2023-11-14T03:09:18.148Z,83.00
2023-11-14T03:10:21.377Z,83.00
2023-11-14T03:11:24.072Z,83.00
2023-11-14T03:12:26.795Z,83.00
2023-11-14T03:13:29.483Z,83.00
2023-11-14T03:14:32.233Z,83.00
2023-11-14T03:15:34.993Z,83.17
2023-11-14T03:16:38.210Z,84.33
2023-11-14T03:17:41.247Z,85.00
2023-11-14T03:18:43.927Z,86.00
2023-11-14T03:19:46.812Z,96.17
2023-11-14T03:20:49.530Z,102.33
2023-11-14T03:21:52.493Z,101.00
2023-11-14T03:22:56.716Z,99.83
2023-11-14T03:23:59.475Z,98.83
2023-11-14T03:25:02.712Z,97.67
2023-11-14T03:26:05.599Z,96.33
2023-11-14T03:27:11.636Z,95.00
2023-11-14T03:28:14.578Z,93.33
2023-11-14T03:29:17.276Z,91.17
2023-11-14T03:30:20.435Z,90.83
2023-11-14T03:31:24.074Z,90.00
2023-11-14T03:32:26.994Z,89.50
2023-11-14T03:33:29.755Z,89.00
2023-11-14T03:34:32.517Z,89.00
2023-11-14T03:35:35.254Z,89.00
2023-11-14T03:36:38.117Z,89.00
2023-11-14T03:37:40.982Z,89.00
2023-11-14T03:38:43.733Z,89.00
2023-11-14T03:39:46.457Z,89.00
2023-11-14T03:40:49.215Z,89.00
2023-11-14T03:41:51.997Z,89.00
2023-11-14T03:42:54.721Z,89.67
2023-11-14T03:43:57.569Z,89.67
2023-11-14T03:45:00.872Z,88.50
2023-11-14T03:46:06.285Z,88.00
2023-11-14T03:47:09.064Z,86.67
2023-11-14T03:48:11.856Z,85.33
2023-11-14T03:49:14.694Z,84.67
2023-11-14T03:50:17.603Z,84.83
2023-11-14T03:51:21.506Z,85.00
2023-11-14T03:52:26.952Z,85.00
2023-11-14T03:53:30.237Z,84.83
2023-11-14T03:54:33.428Z,84.00
2023-11-14T03:55:36.976Z,84.33
2023-11-14T03:56:39.741Z,86.00
2023-11-14T03:57:42.432Z,86.00
2023-11-14T03:58:45.188Z,87.17
2023-11-14T03:59:48.077Z,91.33
2023-11-14T04:00:50.880Z,90.67
2023-11-14T04:01:53.793Z,88.67
2023-11-14T04:02:56.625Z,87.67
2023-11-14T04:03:59.594Z,89.67
2023-11-14T04:05:02.432Z,90.00
2023-11-14T04:06:05.463Z,90.00
2023-11-14T04:07:08.162Z,90.00
2023-11-14T04:08:10.926Z,90.17
2023-11-14T04:09:14.032Z,97.83
2023-11-14T04:10:16.990Z,101.67
2023-11-14T04:11:19.995Z,103.33
2023-11-14T04:12:25.863Z,102.33
2023-11-14T04:13:28.695Z,100.67
2023-11-14T04:14:31.618Z,98.00
2023-11-14T04:15:34.343Z,96.33
2023-11-14T04:16:37.034Z,94.67
2023-11-14T04:17:39.836Z,93.83
2023-11-14T04:18:43.472Z,92.17
2023-11-14T04:19:46.361Z,92.67
2023-11-14T04:20:49.103Z,93.83
2023-11-14T04:21:51.834Z,97.00
2023-11-14T04:22:54.703Z,97.33
2023-11-14T04:23:57.421Z,95.67
2023-11-14T04:25:00.692Z,94.00
2023-11-14T04:26:03.892Z,94.67
2023-11-14T04:27:06.690Z,95.00
2023-11-14T04:28:09.782Z,94.50
2023-11-14T04:29:15.088Z,94.00
2023-11-14T04:30:17.937Z,94.00
2023-11-14T04:31:20.718Z,94.00
2023-11-14T04:32:23.610Z,95.17
2023-11-14T04:33:26.421Z,97.83
2023-11-14T04:34:29.210Z,98.00
2023-11-14T04:35:31.952Z,97.33
2023-11-14T04:36:35.621Z,94.67
2023-11-14T04:37:38.554Z,89.33
2023-11-14T04:38:41.308Z,85.67
2023-11-14T04:39:44.077Z,90.83
2023-11-14T04:40:46.887Z,100.00
2023-11-14T04:41:49.662Z,107.17
2023-11-14T04:42:53.269Z,127.67
2023-11-14T04:43:55.999Z,139.33
2023-11-14T04:44:58.708Z,137.83
2023-11-14T04:46:01.473Z,132.17
2023-11-14T04:47:04.693Z,129.00
2023-11-14T04:48:07.757Z,127.33
2023-11-14T04:49:10.743Z,127.83
2023-11-14T04:50:15.966Z,129.17
2023-11-14T04:51:19.135Z,129.00
2023-11-14T04:52:22.361Z,130.17
2023-11-14T04:53:25.123Z,141.00
2023-11-14T04:54:27.870Z,163.33
2023-11-14T04:55:31.116Z,176.00
2023-11-14T04:56:35.598Z,165.67
2023-11-14T04:57:38.460Z,160.67
2023-11-14T04:58:43.248Z,156.17
2023-11-14T04:59:46.127Z,155.17
2023-11-14T05:00:50.589Z,163.83
2023-11-14T05:01:53.451Z,166.67
2023-11-14T05:02:56.490Z,160.83
2023-11-14T05:03:59.406Z,158.33
2023-11-14T05:05:02.244Z,150.67
2023-11-14T05:06:06.112Z,138.00
2023-11-14T05:07:08.950Z,132.50
2023-11-14T05:08:11.725Z,139.67
2023-11-14T05:09:14.747Z,158.83
2023-11-14T05:10:20.384Z,179.33
2023-11-14T05:11:23.517Z,170.83
2023-11-14T05:12:26.480Z,162.50
2023-11-14T05:13:30.147Z,151.67
2023-11-14T05:14:32.835Z,147.17
2023-11-14T05:15:35.588Z,142.33
2023-11-14T05:16:42.469Z,135.50
2023-11-14T05:17:46.035Z,129.67
2023-11-14T05:18:48.877Z,120.33
2023-11-14T05:19:52.374Z,115.33
2023-11-14T05:20:55.159Z,116.17
2023-11-14T05:21:57.905Z,116.50
2023-11-14T05:23:00.766Z,115.83
2023-11-14T05:24:03.577Z,100.17
2023-11-14T05:25:12.505Z,81.50
2023-11-14T05:26:15.267Z,71.50
2023-11-14T05:27:18.014Z,76.00
2023-11-14T05:28:20.755Z,78.50
2023-11-14T05:29:23.597Z,72.00
2023-11-14T05:30:26.352Z,70.83
2023-11-14T05:31:29.104Z,59.83
2023-11-14T05:32:31.868Z,55.50
2023-11-14T05:33:34.687Z,52.50
2023-11-14T05:34:37.490Z,50.17
2023-11-14T05:35:40.792Z,46.83
2023-11-14T05:36:43.997Z,44.17
2023-11-14T05:37:47.004Z,40.67
2023-11-14T05:38:50.028Z,42.50
2023-11-14T05:39:52.723Z,47.83
2023-11-14T05:40:56.806Z,44.17
2023-11-14T05:41:59.640Z,42.50
2023-11-14T05:43:04.090Z,40.17
2023-11-14T05:44:06.997Z,41.33
2023-11-14T05:45:10.422Z,41.00
2023-11-14T05:46:13.208Z,41.83
2023-11-14T05:47:16.684Z,41.83
2023-11-14T05:48:22.744Z,40.00
2023-11-14T05:49:25.534Z,37.50
2023-11-14T05:50:28.253Z,36.67
2023-11-14T05:51:32.322Z,36.00
2023-11-14T05:52:35.501Z,36.00
2023-11-14T05:53:38.288Z,36.00
2023-11-14T05:54:41.047Z,36.00
2023-11-14T05:55:43.876Z,36.00
2023-11-14T05:56:46.772Z,36.00
2023-11-14T05:57:49.509Z,36.00
2023-11-14T05:58:52.283Z,36.00
2023-11-14T05:59:57.011Z,36.50
2023-11-14T06:00:59.787Z,37.00
2023-11-14T06:02:02.675Z,37.83
2023-11-14T06:03:05.728Z,38.00
2023-11-14T06:04:08.911Z,37.67
2023-11-14T06:05:11.840Z,37.00
2023-11-14T06:06:14.644Z,36.00
2023-11-14T06:07:17.659Z,34.67
2023-11-14T06:08:23.701Z,34.00
2023-11-14T06:09:26.862Z,34.00
2023-11-14T06:10:29.802Z,34.00
2023-11-14T06:11:32.844Z,34.00
2023-11-14T06:12:35.811Z,34.00
2023-11-14T06:13:38.602Z,34.00
2023-11-14T06:14:41.421Z,34.00
2023-11-14T06:15:44.170Z,34.67
2023-11-14T06:16:47.754Z,35.17
2023-11-14T06:17:50.536Z,36.00
2023-11-14T06:18:53.344Z,36.83
2023-11-14T06:19:56.167Z,39.50
2023-11-14T06:21:02.088Z,41.83
2023-11-14T06:22:06.053Z,41.17
2023-11-14T06:23:08.888Z,43.50
2023-11-14T06:24:11.634Z,44.00
2023-11-14T06:25:14.387Z,44.00
2023-11-14T06:26:17.147Z,43.67
2023-11-14T06:27:19.926Z,44.00
2023-11-14T06:28:22.606Z,46.67
2023-11-14T06:29:26.038Z,46.00
2023-11-14T06:30:33.690Z,44.50
2023-11-14T06:31:36.466Z,43.33
2023-11-14T06:32:39.403Z,43.17
2023-11-14T06:33:42.186Z,49.67
2023-11-14T06:34:44.906Z,56.33
2023-11-14T06:35:48.881Z,55.50
2023-11-14T06:36:51.712Z,54.00
2023-11-14T06:37:54.703Z,53.33
2023-11-14T06:38:57.449Z,52.50
2023-11-14T06:40:00.285Z,50.83
2023-11-14T06:41:03.030Z,48.50
2023-11-14T06:42:08.846Z,47.00
2023-11-14T06:43:11.514Z,46.17
2023-11-14T06:44:14.365Z,44.00
2023-11-14T06:45:17.140Z,43.17
2023-11-14T06:46:19.879Z,44.83
2023-11-14T06:47:22.654Z,46.00
2023-11-14T06:48:25.477Z,48.83
2023-11-14T06:49:28.234Z,53.17
2023-11-14T06:50:41.032Z,52.17
2023-11-14T06:51:46.899Z,51.00
2023-11-14T06:52:49.757Z,49.50
2023-11-14T06:53:52.548Z,48.00
2023-11-14T06:54:55.988Z,46.50
2023-11-14T06:56:00.136Z,44.67
2023-11-14T06:57:03.013Z,44.00
2023-11-14T06:58:06.267Z,44.33
2023-11-14T06:59:09.145Z,45.00
2023-11-14T07:00:12.516Z,46.17
2023-11-14T07:01:15.311Z,47.00
2023-11-14T07:02:18.433Z,47.33
2023-11-14T07:03:21.339Z,48.00
2023-11-14T07:04:24.288Z,47.50
2023-11-14T07:05:27.184Z,47.00
2023-11-14T07:06:30.957Z,46.67
2023-11-14T07:07:33.797Z,46.00
2023-11-14T07:08:36.641Z,45.67
2023-11-14T07:09:39.390Z,45.83
2023-11-14T07:10:42.159Z,47.00
2023-11-14T07:11:45.850Z,50.67
2023-11-14T07:12:48.582Z,51.00
2023-11-14T07:13:52.387Z,57.50
2023-11-14T07:14:55.101Z,66.83
2023-11-14T07:15:57.943Z,66.33
2023-11-14T07:17:00.851Z,79.67
2023-11-14T07:18:03.965Z,82.67
2023-11-14T07:19:07.967Z,74.00
2023-11-14T07:20:12.085Z,79.67
2023-11-14T07:21:15.298Z,88.00
2023-11-14T07:22:18.448Z,82.17
2023-11-14T07:23:22.189Z,78.67
2023-11-14T07:24:26.452Z,76.83
2023-11-14T07:25:30.330Z,70.50
2023-11-14T07:26:33.233Z,65.50
2023-11-14T07:27:36.490Z,60.50
2023-11-14T07:28:39.384Z,53.50
2023-11-14T07:29:42.964Z,47.33
2023-11-14T07:30:49.259Z,45.17
2023-11-14T07:31:53.885Z,47.83
2023-11-14T07:32:57.519Z,49.50
2023-11-14T07:34:00.261Z,50.67
2023-11-14T07:35:03.955Z,51.00
2023-11-14T07:36:07.391Z,50.67
2023-11-14T07:37:10.443Z,51.50
2023-11-14T07:38:13.245Z,52.33
2023-11-14T07:39:17.913Z,53.00
2023-11-14T07:40:23.589Z,57.83
2023-11-14T07:41:26.851Z,66.83
2023-11-14T07:42:32.048Z,65.83
2023-11-14T07:43:34.852Z,64.67
2023-11-14T07:44:37.767Z,62.00
2023-11-14T07:45:41.985Z,59.83
2023-11-14T07:46:46.034Z,58.50
2023-11-14T07:47:49.490Z,57.00
2023-11-14T07:48:52.486Z,56.00
2023-11-14T07:49:56.128Z,56.00
2023-11-14T07:50:59.135Z,56.00
2023-11-14T07:52:01.866Z,57.17
2023-11-14T07:53:05.683Z,69.00
2023-11-14T07:54:08.534Z,89.00
2023-11-14T07:55:12.585Z,85.83
2023-11-14T07:56:15.950Z,93.00
2023-11-14T07:57:18.926Z,98.50
2023-11-14T07:58:21.708Z,106.50
2023-11-14T07:59:24.482Z,106.17
2023-11-14T08:00:27.929Z,106.83
2023-11-14T08:01:31.076Z,110.50
2023-11-14T08:02:34.273Z,97.17
2023-11-14T08:03:37.898Z,92.00
2023-11-14T08:04:41.961Z,90.83
2023-11-14T08:05:44.726Z,90.17
2023-11-14T08:06:47.448Z,95.00
2023-11-14T08:07:50.180Z,93.50
2023-11-14T08:08:57.587Z,87.83
2023-11-14T08:10:00.364Z,85.50
2023-11-14T08:11:03.599Z,85.00
2023-11-14T08:12:08.281Z,85.17
2023-11-14T08:13:11.122Z,89.17
2023-11-14T08:14:13.896Z,92.50
2023-11-14T08:15:17.671Z,98.00
2023-11-14T08:16:20.422Z,102.67
2023-11-14T08:17:23.286Z,106.00
2023-11-14T08:18:26.266Z,107.67
2023-11-14T08:19:29.084Z,106.33
2023-11-14T08:20:31.971Z,106.50
2023-11-14T08:21:36.170Z,105.17
2023-11-14T08:22:38.903Z,105.00
2023-11-14T08:23:44.932Z,106.50
2023-11-14T08:24:47.647Z,106.67
2023-11-14T08:25:51.984Z,108.17
2023-11-14T08:26:54.799Z,109.00
2023-11-14T08:27:57.676Z,107.33
2023-11-14T08:29:00.463Z,106.00
2023-11-14T08:30:07.350Z,106.00
2023-11-14T08:31:10.430Z,106.00
2023-11-14T08:32:17.035Z,106.00
2023-11-14T08:33:20.193Z,108.17
2023-11-14T08:34:23.530Z,112.17
2023-11-14T08:35:26.546Z,116.17
2023-11-14T08:36:29.359Z,115.17
2023-11-14T08:37:33.049Z,113.67
2023-11-14T08:38:38.851Z,116.67
2023-11-14T08:39:42.017Z,114.33
2023-11-14T08:40:44.853Z,109.33
2023-11-14T08:41:47.892Z,102.00
2023-11-14T08:42:52.917Z,98.83
2023-11-14T08:43:55.715Z,85.83
2023-11-14T08:44:59.270Z,60.67
2023-11-14T08:46:02.255Z,51.83
2023-11-14T08:47:05.556Z,57.17
2023-11-14T08:48:09.649Z,57.33
2023-11-14T08:49:12.949Z,50.50
2023-11-14T08:50:17.988Z,52.17
2023-11-14T08:51:24.043Z,54.33
2023-11-14T08:52:27.403Z,58.33
2023-11-14T08:53:30.203Z,56.00
2023-11-14T08:54:34.102Z,56.17
2023-11-14T08:55:37.111Z,54.83
2023-11-14T08:56:40.171Z,56.83
2023-11-14T08:57:45.056Z,57.67
2023-11-14T08:58:50.333Z,56.17
2023-11-14T08:59:55.023Z,51.17
2023-11-14T09:00:59.881Z,51.50
2023-11-14T09:02:04.362Z,51.83
2023-11-14T09:03:07.363Z,50.83
2023-11-14T09:04:13.795Z,50.50
2023-11-14T09:05:16.737Z,51.00
2023-11-14T09:06:19.604Z,49.67
2023-11-14T09:07:22.428Z,48.00
2023-11-14T09:08:27.907Z,47.17
2023-11-14T09:09:30.704Z,47.50
2023-11-14T09:10:33.471Z,48.00
2023-11-14T09:11:38.398Z,47.00
2023-11-14T09:12:41.384Z,42.50
2023-11-14T09:13:45.619Z,37.67
2023-11-14T09:14:48.407Z,33.00
2023-11-14T09:15:51.180Z,30.00
2023-11-14T09:16:54.975Z,28.17
2023-11-14T09:17:58.681Z,27.83
2023-11-14T09:19:03.412Z,26.50
2023-11-14T09:20:06.911Z,25.50
2023-11-14T09:21:11.464Z,26.00
2023-11-14T09:22:14.283Z,27.33
2023-11-14T09:23:17.083Z,28.33
2023-11-14T09:24:20.024Z,29.17
2023-11-14T09:25:22.739Z,30.00
2023-11-14T09:26:25.758Z,30.00
2023-11-14T09:27:28.533Z,29.83
2023-11-14T09:28:32.148Z,28.33
2023-11-14T09:29:35.160Z,27.00
2023-11-14T09:30:38.174Z,26.33
2023-11-14T09:31:40.952Z,26.00
2023-11-14T09:32:43.744Z,26.00
2023-11-14T09:33:47.931Z,26.00
2023-11-14T09:34:51.593Z,26.00
2023-11-14T09:35:54.326Z,26.00
2023-11-14T09:36:58.612Z,27.50
2023-11-14T09:38:02.220Z,34.83
2023-11-14T09:39:06.912Z,35.50
2023-11-14T09:40:23.265Z,35.00
2023-11-14T09:41:28.776Z,33.83
2023-11-14T09:42:31.989Z,29.83
2023-11-14T09:43:35.611Z,25.50
2023-11-14T09:44:39.242Z,24.00
2023-11-14T09:45:42.820Z,24.00
2023-11-14T09:46:50.476Z,24.00
2023-11-14T09:47:56.059Z,24.00
2023-11-14T09:48:59.011Z,24.00
2023-11-14T09:50:01.808Z,24.67
2023-11-14T09:51:07.641Z,24.67
2023-11-14T09:52:14.024Z,20.67
2023-11-14T09:53:22.075Z,16.67
2023-11-14T09:54:25.077Z,16.00
2023-11-14T09:55:27.925Z,16.00
2023-11-14T09:56:30.839Z,16.00
2023-11-14T09:57:37.761Z,16.00
2023-11-14T09:58:40.755Z,16.17
2023-11-14T09:59:44.328Z,17.00
2023-11-14T10:00:47.749Z,17.33
2023-11-14T10:01:50.514Z,18.50
2023-11-14T10:02:53.398Z,19.50
2023-11-14T10:03:57.352Z,20.00
2023-11-14T10:05:07.103Z,20.00
2023-11-14T10:06:16.164Z,20.00
2023-11-14T10:07:21.314Z,20.83
2023-11-14T10:08:25.566Z,21.33
2023-11-14T10:09:29.204Z,24.17
2023-11-14T10:10:33.194Z,25.00
2023-11-14T10:12:57.528Z,24.00
2023-11-14T10:14:05.527Z,24.67
2023-11-14T10:15:09.131Z,24.17
2023-11-14T10:16:18.281Z,24.00
2023-11-14T10:17:22.061Z,23.00
2023-11-14T10:18:31.365Z,23.00
2023-11-14T10:19:34.200Z,23.00
2023-11-14T10:21:46.419Z,22.50
2023-11-14T10:23:07.768Z,22.00
2023-11-14T10:24:15.292Z,22.00
2023-11-14T10:25:34.028Z,22.00
2023-11-14T10:26:57.631Z,21.00
2023-11-14T10:28:05.691Z,21.00
2023-11-14T10:29:08.699Z,20.17
2023-11-14T10:30:12.291Z,20.00
2023-11-14T10:31:17.226Z,20.00
2023-11-14T10:32:20.716Z,20.00
2023-11-14T10:33:30.962Z,20.33
2023-11-14T10:34:37.478Z,21.00
2023-11-14T10:35:42.319Z,22.00
2023-11-14T10:36:50.794Z,21.67
2023-11-14T10:37:53.534Z,22.00
2023-11-14T10:39:05.143Z,22.00
2023-11-14T10:40:09.318Z,22.00
2023-11-14T10:41:12.808Z,22.00
2023-11-14T10:42:15.743Z,22.00
2023-11-14T10:43:33.398Z,22.00
2023-11-14T10:44:36.202Z,22.00
2023-11-14T10:45:40.258Z,22.50
2023-11-14T10:46:54.216Z,23.67
2023-11-14T10:47:58.483Z,25.00
2023-11-14T10:49:04.484Z,25.00
2023-11-14T10:50:24.424Z,25.67
2023-11-14T10:51:28.136Z,26.67
2023-11-14T10:52:33.809Z,27.50
2023-11-14T10:53:36.766Z,28.00
2023-11-14T10:54:39.972Z,29.00
2023-11-14T10:55:46.561Z,29.17
2023-11-14T10:56:57.458Z,33.50
2023-11-14T10:58:02.015Z,38.00
2023-11-14T10:59:11.868Z,37.17
2023-11-14T11:00:14.899Z,36.00
2023-11-14T11:01:18.689Z,35.00
2023-11-14T11:02:23.839Z,35.00
2023-11-14T11:03:28.155Z,34.50
2023-11-14T11:04:31.276Z,34.00
2023-11-14T11:05:34.105Z,34.00
2023-11-14T11:06:37.689Z,34.00
2023-11-14T11:07:40.939Z,34.83
2023-11-14T11:08:43.697Z,36.00
2023-11-14T11:09:47.022Z,36.00
2023-11-14T11:10:52.873Z,35.33
2023-11-14T11:11:59.642Z,35.00
2023-11-14T11:13:09.540Z,35.00
2023-11-14T11:14:15.411Z,36.00
2023-11-14T11:15:18.381Z,36.00
2023-11-14T11:16:40.440Z,35.83
2023-11-14T11:17:45.613Z,35.00
2023-11-14T11:18:49.303Z,35.00
2023-11-14T11:19:55.730Z,36.00
2023-11-14T11:21:14.535Z,36.00
2023-11-14T11:22:18.936Z,36.00
2023-11-14T11:23:22.905Z,35.50
2023-11-14T11:24:36.899Z,35.00
2023-11-14T11:25:49.183Z,33.33
2023-11-14T11:27:13.568Z,33.00
2023-11-14T11:28:22.756Z,34.67
2023-11-14T11:29:45.956Z,36.00
2023-11-14T11:31:08.771Z,36.00
2023-11-14T11:32:31.619Z,36.00
2023-11-14T11:33:37.573Z,36.83
2023-11-14T11:34:41.559Z,36.83
2023-11-14T11:35:46.926Z,35.33
2023-11-14T11:36:49.674Z,32.17
2023-11-14T11:37:58.933Z,29.00
2023-11-14T11:39:07.376Z,26.67
2023-11-14T11:40:12.461Z,24.67
2023-11-14T11:41:19.078Z,24.00
2023-11-14T11:42:31.372Z,24.33
2023-11-14T11:43:37.873Z,25.00
2023-11-14T11:44:42.574Z,24.33
2023-11-14T11:45:51.008Z,24.00
2023-11-14T11:46:54.096Z,24.17
2023-11-14T11:48:00.915Z,25.00
2023-11-14T11:49:29.728Z,24.50
2023-11-14T11:50:36.189Z,24.00
2023-11-14T11:51:48.300Z,24.00
2023-11-14T11:53:08.361Z,24.00
2023-11-14T11:54:30.408Z,24.00
2023-11-14T11:55:38.420Z,24.00
2023-11-14T11:56:41.279Z,24.00
2023-11-14T11:57:48.090Z,24.83
2023-11-14T11:58:50.860Z,26.50
2023-11-14T11:59:54.306Z,27.00
2023-11-14T12:01:08.352Z,26.00
2023-11-14T12:02:16.334Z,26.33
2023-11-14T12:03:20.351Z,26.00
2023-11-14T12:04:24.170Z,27.00
2023-11-14T12:05:32.829Z,26.67
2023-11-14T12:06:36.864Z,25.17
2023-11-14T12:07:41.083Z,23.67
2023-11-14T12:08:43.844Z,23.00
2023-11-14T12:09:47.372Z,23.00
2023-11-14T12:10:51.290Z,23.00
2023-11-14T12:11:54.052Z,23.00
2023-11-14T12:12:58.564Z,23.00
2023-11-14T12:14:02.065Z,23.33
2023-11-14T12:15:06.845Z,24.00
2023-11-14T12:16:09.599Z,24.00
2023-11-14T12:17:12.576Z,24.00
2023-11-14T12:18:15.497Z,24.00
2023-11-14T12:19:18.217Z,24.00
2023-11-14T12:20:26.103Z,24.33
2023-11-14T12:21:30.233Z,25.00
2023-11-14T12:22:33.004Z,25.50
2023-11-14T12:23:35.810Z,26.67
2023-11-14T12:24:38.711Z,27.00
2023-11-14T12:25:42.098Z,27.00
2023-11-14T12:26:45.433Z,27.00
2023-11-14T12:28:00.927Z,27.00
2023-11-14T12:29:08.984Z,27.33
2023-11-14T12:30:14.526Z,28.00
2023-11-14T12:31:27.457Z,28.00
2023-11-14T12:32:30.499Z,28.00
2023-11-14T12:33:53.936Z,29.50
2023-11-14T12:35:00.439Z,31.50
2023-11-14T12:36:06.193Z,32.00
2023-11-14T12:37:16.062Z,31.33
2023-11-14T12:38:32.760Z,30.50
2023-11-14T12:39:35.582Z,29.17
2023-11-14T12:40:38.715Z,28.17
2023-11-14T12:41:49.002Z,28.00
2023-11-14T12:42:52.088Z,28.33
2023-11-14T12:44:02.647Z,29.50
2023-11-14T12:45:11.179Z,30.00
2023-11-14T12:46:22.347Z,30.00
2023-11-14T12:47:26.083Z,29.33
2023-11-14T12:48:28.933Z,29.00
2023-11-14T12:49:33.430Z,29.00
2023-11-14T12:50:36.478Z,29.00
2023-11-14T12:51:40.704Z,30.00
2023-11-14T12:52:44.024Z,30.00
2023-11-14T12:53:46.770Z,29.33
2023-11-14T12:54:49.479Z,29.33
2023-11-14T12:55:52.166Z,30.00
2023-11-14T12:56:57.192Z,30.00
2023-11-14T12:57:59.894Z,30.00
2023-11-14T12:59:06.776Z,37.33
2023-11-14T13:00:13.726Z,45.67
2023-11-14T13:01:16.703Z,43.50
2023-11-14T13:02:19.630Z,42.00
2023-11-14T13:03:22.447Z,40.17
2023-11-14T13:04:28.178Z,38.50
2023-11-14T13:05:31.014Z,37.50
2023-11-14T13:06:39.249Z,36.00
2023-11-14T13:07:42.423Z,33.67
2023-11-14T13:08:49.361Z,32.17
2023-11-14T13:09:52.529Z,32.00
2023-11-14T13:10:55.318Z,31.67
2023-11-14T13:11:58.118Z,31.00
2023-11-14T13:13:01.508Z,31.67
2023-11-14T13:14:05.216Z,32.00
2023-11-14T13:15:08.198Z,31.17
2023-11-14T13:16:11.047Z,30.17
2023-11-14T13:17:14.225Z,28.33
2023-11-14T13:18:17.003Z,27.67
2023-11-14T13:19:19.836Z,27.00
2023-11-14T13:20:22.609Z,27.00
2023-11-14T13:21:26.029Z,27.00
2023-11-14T13:22:33.771Z,27.00
2023-11-14T13:23:40.196Z,27.00
2023-11-14T13:24:42.964Z,27.00
2023-11-14T13:25:45.699Z,28.00
2023-11-14T13:26:48.971Z,27.83
2023-11-14T13:27:51.984Z,27.00
2023-11-14T13:28:55.465Z,27.00
2023-11-14T13:29:58.267Z,26.33
2023-11-14T13:31:01.683Z,26.00
2023-11-14T13:32:04.820Z,25.83
2023-11-14T13:33:07.887Z,25.00
2023-11-14T13:34:10.730Z,25.00
2023-11-14T13:35:14.838Z,26.00
2023-11-14T13:36:19.810Z,26.00
2023-11-14T13:37:22.661Z,26.00
2023-11-14T13:38:28.302Z,26.00
2023-11-14T13:39:31.515Z,26.00
2023-11-14T13:40:34.500Z,26.00
2023-11-14T13:42:43.964Z,25.00
2023-11-14T13:43:47.162Z,25.00
2023-11-14T13:44:50.481Z,25.00
2023-11-14T13:45:53.300Z,25.00
2023-11-14T13:46:56.960Z,25.00
2023-11-14T13:48:00.165Z,25.50
2023-11-14T13:49:04.101Z,25.17